Manti, Utah
Current Conditions -  °F | °C
As of 7:35 PM on Tuesday 21 Oct 2014 (Local Time) from KDTA Reporting Station
Broken Clouds Broken Clouds  
Wind Chill: 14°   Ceiling: 10000
Heat Index: 14°   Visibility: 10mi
Dew Point: -1°   Wind: 13mph
Humidity: 38%   Direction: 20°NNE
Pressure: 30.01"   Gusts: 18mph
Location:  39.27°N, 111.64°W
Report Text: KDTA 220135Z AUTO 02011G16KT 10SM BKN100 14/00 A3001 RMK AO1 T01351005
Loading
Personal Weather Stations






























Interactive Weather Map
Tropical Storm Tracking
New forecast layout! Learn more

10-Day Weather Forecast

Advertisements
Track Severe Weather on mobile